Time;durP1;ratioP1;P1;durP2;ratioP2;P2;SDS_P1;SDS_P2;PMS_P1;PMS_P2;Temp;Humidity;BMP_temperature;BMP_pressure;BME280_temperature;BME280_humidity;BME280_pressure;Samples;Min_cycle;Max_cycle;Signal;HPM_P1;HPM_P2
2023/07/30 00:02:27;;;;;;;3.53;1.40;;;;;;;18.41;100.00;98315.94;4933270;28;20238;-63
2023/07/30 00:04:55;;;;;;;2.50;1.60;;;;;;;18.39;100.00;98317.97;4945256;28;20256;-63
2023/07/30 00:07:22;;;;;;;3.03;1.30;;;;;;;18.39;100.00;98312.69;4940509;28;20227;-63
2023/07/30 00:10:13;;;;;;;2.97;1.40;;;;;;;18.26;100.00;98300.34;4939451;28;20283;-63
2023/07/30 00:12:40;;;;;;;4.53;2.07;;;;;;;18.24;100.00;98297.09;4941649;28;20243;-64
2023/07/30 00:15:08;;;;;;;5.17;1.30;;;;;;;18.19;100.00;98307.47;4943578;28;20242;-63
2023/07/30 00:17:36;;;;;;;1.27;1.07;;;;;;;18.12;100.00;98305.66;4941750;28;20258;-63
2023/07/30 00:20:03;;;;;;;3.27;1.23;;;;;;;18.11;100.00;98303.25;4945788;28;20248;-63
2023/07/30 00:22:29;;;;;;;5.83;1.53;;;;;;;18.06;100.00;98295.91;4943257;28;20333;-63
2023/07/30 00:24:56;;;;;;;5.00;2.73;;;;;;;18.19;100.00;98308.28;4943977;28;20714;-63
2023/07/30 00:27:22;;;;;;;4.57;2.77;;;;;;;18.26;100.00;98308.25;4932542;28;20714;-63
2023/07/30 00:29:55;;;;;;;7.10;3.03;;;;;;;18.33;100.00;98309.03;4936448;28;20423;-63
2023/07/30 00:32:21;;;;;;;4.60;2.93;;;;;;;18.40;100.00;98311.69;4941578;28;20227;-63
2023/07/30 00:35:14;;;;;;;6.57;3.37;;;;;;;18.43;100.00;98316.53;4942500;28;20274;-64
2023/07/30 00:37:41;;;;;;;8.23;3.30;;;;;;;18.40;100.00;98323.03;4943064;28;20261;-64
2023/07/30 00:40:08;;;;;;;5.30;3.10;;;;;;;18.42;100.00;98321.00;4945248;28;20226;-64
2023/07/30 00:42:35;;;;;;;5.40;3.33;;;;;;;18.40;100.00;98309.84;4942776;28;20243;-63
2023/07/30 00:45:03;;;;;;;4.13;3.00;;;;;;;18.43;100.00;98313.91;4943133;28;20252;-63
2023/07/30 00:47:31;;;;;;;4.40;3.27;;;;;;;18.46;100.00;98315.31;4939259;28;20316;-63
2023/07/30 00:49:58;;;;;;;4.90;3.40;;;;;;;18.47;100.00;98306.34;4942772;28;20239;-64
2023/07/30 00:52:26;;;;;;;4.50;3.37;;;;;;;18.49;100.00;98305.13;4939711;28;20235;-63
2023/07/30 00:54:58;;;;;;;4.90;3.30;;;;;;;18.54;100.00;98315.06;4932133;28;20395;-63
2023/07/30 00:57:26;;;;;;;3.50;2.73;;;;;;;18.55;100.00;98312.19;4940945;28;21522;-63
2023/07/30 00:59:56;;;;;;;5.50;3.20;;;;;;;18.55;100.00;98316.69;4940922;28;20246;-63
2023/07/30 01:02:23;;;;;;;4.83;3.17;;;;;;;18.56;100.00;98305.88;4955621;28;20727;-63
2023/07/30 01:04:55;;;;;;;4.47;2.70;;;;;;;18.61;100.00;98321.13;4942078;28;20243;-63
2023/07/30 01:07:21;;;;;;;4.20;3.20;;;;;;;18.61;100.00;98317.66;4942718;28;20237;-63
2023/07/30 01:10:15;;;;;;;4.47;2.70;;;;;;;18.63;100.00;98315.63;4941092;28;20371;-63
2023/07/30 01:12:44;;;;;;;4.00;2.77;;;;;;;18.63;100.00;98320.91;4949074;28;20236;-63
2023/07/30 01:15:11;;;;;;;4.07;3.23;;;;;;;18.70;100.00;98327.81;4954578;28;20248;-63
2023/07/30 01:17:38;;;;;;;3.70;2.87;;;;;;;18.73;100.00;98330.03;4944041;28;20231;-63
2023/07/30 01:20:05;;;;;;;4.10;2.80;;;;;;;18.72;100.00;98335.50;4942679;28;20242;-63
2023/07/30 01:22:33;;;;;;;3.83;2.93;;;;;;;18.71;100.00;98337.34;4942634;28;20239;-63
2023/07/30 01:25:00;;;;;;;3.57;3.27;;;;;;;18.70;100.00;98327.81;4942260;28;20230;-63
2023/07/30 01:27:31;;;;;;;3.97;2.90;;;;;;;18.70;100.00;98340.19;4942535;28;20612;-63
2023/07/30 01:30:07;;;;;;;3.37;2.57;;;;;;;18.74;100.00;98350.16;4939873;28;20238;-64
2023/07/30 01:32:34;;;;;;;6.70;3.60;;;;;;;18.68;100.00;98347.53;4944670;28;20241;-63
2023/07/30 01:35:02;;;;;;;3.73;2.83;;;;;;;18.72;100.00;98343.44;4946523;28;20721;-63
2023/07/30 01:37:30;;;;;;;5.23;3.00;;;;;;;18.65;100.00;98343.47;4944730;28;20247;-63
2023/07/30 01:39:59;;;;;;;5.50;2.33;;;;;;;18.67;100.00;98336.16;4947840;28;20325;-63
2023/07/30 01:42:29;;;;;;;4.13;2.80;;;;;;;18.56;100.00;98331.53;4946305;28;20242;-63
2023/07/30 01:44:55;;;;;;;5.47;2.83;;;;;;;18.57;100.00;98327.88;4944417;28;20253;-63
2023/07/30 01:47:22;;;;;;;4.60;2.47;;;;;;;18.53;100.00;98342.50;4945646;28;20246;-64
2023/07/30 01:49:55;;;;;;;2.87;2.40;;;;;;;18.47;100.00;98332.78;4949001;28;20601;-64
2023/07/30 01:52:21;;;;;;;3.60;2.70;;;;;;;18.47;100.00;98343.34;4948410;28;20223;-63
2023/07/30 01:55:14;;;;;;;3.17;2.60;;;;;;;18.50;100.00;98345.56;4944095;28;20714;-64
2023/07/30 01:57:41;;;;;;;3.20;2.50;;;;;;;18.51;100.00;98339.28;4946044;28;20234;-63
2023/07/30 02:00:08;;;;;;;5.13;2.30;;;;;;;18.50;100.00;98341.13;4944743;28;20231;-63
2023/07/30 02:02:35;;;;;;;2.73;2.33;;;;;;;18.53;100.00;98327.50;4933235;28;20239;-63
2023/07/30 02:05:02;;;;;;;3.30;2.23;;;;;;;18.55;100.00;98330.69;4961671;28;20306;-64
2023/07/30 02:07:29;;;;;;;4.30;2.27;;;;;;;18.55;100.00;98330.69;4943891;28;20801;-63
2023/07/30 02:09:55;;;;;;;2.57;2.30;;;;;;;18.55;100.00;98332.53;4943531;28;20266;-63
2023/07/30 02:12:23;;;;;;;4.23;2.67;;;;;;;18.52;100.00;98340.91;4940883;28;20322;-63
2023/07/30 02:14:55;;;;;;;2.90;2.50;;;;;;;18.59;100.00;98326.63;4946840;28;20253;-63
2023/07/30 02:17:22;;;;;;;4.50;2.50;;;;;;;18.58;100.00;98324.19;4942457;28;20235;-63
2023/07/30 02:19:55;;;;;;;5.53;2.60;;;;;;;18.54;100.00;98330.94;4947520;28;20240;-63
2023/07/30 02:22:22;;;;;;;4.30;2.40;;;;;;;18.51;100.00;98311.03;4944612;28;20779;-63
2023/07/30 02:25:13;;;;;;;4.77;2.20;;;;;;;18.49;100.00;98317.53;4942898;28;20233;-63
2023/07/30 02:27:45;;;;;;;2.67;2.37;;;;;;;18.49;100.00;98312.25;4934355;28;20303;-64
2023/07/30 02:30:16;;;;;;;2.57;2.13;;;;;;;18.49;100.00;98310.44;4897488;28;20242;-65
2023/07/30 02:32:46;;;;;;;4.53;2.33;;;;;;;18.51;100.00;98336.63;4915362;28;20243;-65
2023/07/30 02:35:13;;;;;;;3.23;2.43;;;;;;;18.57;100.00;98335.78;4899490;28;20262;-64
2023/07/30 02:37:43;;;;;;;3.67;2.43;;;;;;;18.50;100.00;98325.25;4910455;28;20586;-64
2023/07/30 02:40:15;;;;;;;3.20;2.30;;;;;;;18.51;100.00;98326.06;4938685;28;20266;-64
2023/07/30 02:42:49;;;;;;;2.97;2.40;;;;;;;18.38;100.00;98329.56;4943173;28;20230;-65
2023/07/30 02:45:16;;;;;;;5.53;2.03;;;;;;;18.31;100.00;98326.94;4942349;28;20226;-65
2023/07/30 02:47:46;;;;;;;2.53;1.70;;;;;;;18.30;100.00;98317.38;4934326;28;20235;-65
2023/07/30 02:50:13;;;;;;;2.33;1.80;;;;;;;18.20;100.00;98320.47;4930334;28;20800;-64
2023/07/30 02:52:46;;;;;;;2.87;1.93;;;;;;;18.14;100.00;98324.75;4943064;28;20266;-64
2023/07/30 02:55:16;;;;;;;3.30;1.80;;;;;;;18.11;100.00;98327.81;4919622;28;20232;-65
2023/07/30 02:57:53;;;;;;;1.77;1.40;;;;;;;18.00;100.00;98323.97;4916649;28;20292;-64
2023/07/30 03:00:23;;;;;;;2.77;1.60;;;;;;;18.08;100.00;98325.56;4908739;28;20647;-64
2023/07/30 03:02:51;;;;;;;3.63;1.67;;;;;;;18.14;100.00;98330.03;4917307;28;20763;-64
2023/07/30 03:05:18;;;;;;;1.80;1.50;;;;;;;18.10;100.00;98328.81;4926371;28;20725;-64
2023/07/30 03:07:44;;;;;;;3.87;1.60;;;;;;;18.09;100.00;98329.84;4928844;28;20289;-64
2023/07/30 03:10:11;;;;;;;2.10;1.50;;;;;;;18.07;100.00;98329.22;4938687;28;20772;-64
2023/07/30 03:12:38;;;;;;;1.77;1.30;;;;;;;18.05;100.00;98330.47;4945898;28;20234;-64
2023/07/30 03:15:06;;;;;;;2.60;1.40;;;;;;;18.01;100.00;98330.09;4943805;28;20306;-64
2023/07/30 03:17:33;;;;;;;1.80;1.47;;;;;;;17.99;100.00;98329.44;4941171;28;20235;-64
2023/07/30 03:20:00;;;;;;;2.37;1.50;;;;;;;18.00;100.00;98333.75;4946142;28;20738;-64
2023/07/30 03:22:26;;;;;;;2.43;1.30;;;;;;;17.98;100.00;98330.47;4941765;28;20225;-64
2023/07/30 03:24:55;;;;;;;2.03;1.50;;;;;;;17.98;100.00;98335.75;4960026;28;20262;-64
2023/07/30 03:27:21;;;;;;;2.30;1.10;;;;;;;18.00;100.00;98349.59;4942068;28;20253;-64
2023/07/30 03:32:56;;;;;;;1.83;1.30;;;;;;;17.95;100.00;98357.28;5041611;23;20228;-63
2023/07/30 03:35:22;;;;;;;3.70;1.40;;;;;;;18.04;100.00;98358.69;4977007;28;20331;-63
2023/07/30 03:37:49;;;;;;;2.75;1.52;;;;;;;18.06;100.00;98358.50;4981731;28;20510;-63
2023/07/30 03:40:16;;;;;;;1.40;1.13;;;;;;;18.08;100.00;98361.75;4977537;28;20303;-63
2023/07/30 03:42:42;;;;;;;1.70;1.30;;;;;;;18.06;100.00;98354.03;4969692;28;20597;-63
2023/07/30 03:45:10;;;;;;;3.23;1.67;;;;;;;18.08;100.00;98359.13;4964954;28;20329;-63
2023/07/30 03:47:36;;;;;;;3.10;1.47;;;;;;;18.05;100.00;98359.53;4966648;28;20719;-63
2023/07/30 03:50:05;;;;;;;3.13;1.37;;;;;;;18.09;100.00;98358.09;4968420;28;20253;-63
2023/07/30 03:52:31;;;;;;;2.80;1.70;;;;;;;18.06;100.00;98361.94;4956257;28;20375;-63
2023/07/30 03:54:58;;;;;;;1.50;1.20;;;;;;;18.09;100.00;98358.09;4971842;28;20230;-63
2023/07/30 03:57:24;;;;;;;1.70;1.37;;;;;;;18.08;100.00;98362.56;4981589;28;20221;-63
2023/07/30 03:59:55;;;;;;;3.30;1.50;;;;;;;18.14;100.00;98374.94;4969383;28;20245;-63
2023/07/30 04:02:22;;;;;;;3.00;1.50;;;;;;;18.14;100.00;98374.13;4964897;28;20290;-63
2023/07/30 04:05:15;;;;;;;2.50;1.50;;;;;;;18.12;100.00;98371.69;4964845;28;20594;-63
2023/07/30 04:07:41;;;;;;;1.80;1.40;;;;;;;18.13;100.00;98381.22;4971026;28;20697;-63
2023/07/30 04:10:08;;;;;;;1.87;1.67;;;;;;;18.12;100.00;98389.38;4968853;28;20845;-63
2023/07/30 04:12:35;;;;;;;2.03;1.23;;;;;;;18.11;100.00;98372.69;4965684;28;20262;-63
2023/07/30 04:15:02;;;;;;;1.57;1.47;;;;;;;18.08;100.00;98393.44;4959782;28;20241;-63
2023/07/30 04:17:28;;;;;;;2.43;1.70;;;;;;;18.03;100.00;98401.16;4966603;28;20280;-63
2023/07/30 04:19:56;;;;;;;3.20;2.10;;;;;;;17.98;100.00;98410.50;4984352;28;20301;-63
2023/07/30 04:22:24;;;;;;;3.63;1.53;;;;;;;17.97;100.00;98414.16;4965175;28;20725;-63
2023/07/30 04:24:55;;;;;;;2.20;1.40;;;;;;;17.95;100.00;98404.81;4969075;28;20245;-63
2023/07/30 04:27:21;;;;;;;2.00;1.77;;;;;;;17.94;100.00;98405.84;4966740;28;20231;-63
2023/07/30 04:29:55;;;;;;;2.33;1.60;;;;;;;17.98;100.00;98407.06;4986362;28;20276;-62
2023/07/30 04:32:22;;;;;;;2.67;1.87;;;;;;;17.91;100.00;98400.97;4967207;28;20235;-62
2023/07/30 04:34:55;;;;;;;2.50;1.93;;;;;;;17.87;100.00;98399.75;4969548;28;20231;-63
2023/07/30 04:37:21;;;;;;;2.27;1.70;;;;;;;17.88;100.00;98398.72;4965922;28;20217;-63
2023/07/30 04:39:55;;;;;;;2.30;1.87;;;;;;;17.84;100.00;98395.66;4969793;28;20229;-63
2023/07/30 04:42:22;;;;;;;1.50;1.40;;;;;;;17.84;100.00;98388.56;4981818;28;20230;-63
2023/07/30 04:44:55;;;;;;;2.57;2.07;;;;;;;17.84;100.00;98385.94;4967108;28;20209;-62
2023/07/30 04:47:22;;;;;;;2.13;1.73;;;;;;;17.94;100.00;98387.34;4962895;28;20229;-62
2023/07/30 04:49:55;;;;;;;1.93;1.73;;;;;;;18.02;100.00;98403.00;4957463;28;20237;-62
2023/07/30 04:52:22;;;;;;;2.30;1.63;;;;;;;18.05;100.00;98401.78;4965882;28;20234;-62
2023/07/30 04:54:56;;;;;;;1.93;1.70;;;;;;;18.13;100.00;98404.22;4984878;28;20241;-63
2023/07/30 04:57:23;;;;;;;3.57;2.07;;;;;;;18.14;100.00;98413.75;4959301;28;20215;-63
2023/07/30 04:59:53;;;;;;;2.20;1.60;;;;;;;18.22;100.00;98407.44;4968113;28;20708;-63
2023/07/30 05:02:20;;;;;;;2.50;2.00;;;;;;;18.25;100.00;98409.66;4966863;28;20233;-63
2023/07/30 05:04:46;;;;;;;2.13;1.93;;;;;;;18.29;100.00;98397.66;4968919;28;20242;-63
2023/07/30 05:07:13;;;;;;;4.43;1.87;;;;;;;18.24;100.00;98403.59;4971549;28;20243;-63
2023/07/30 05:09:39;;;;;;;2.60;1.87;;;;;;;18.23;100.00;98398.50;4972160;28;20300;-63
2023/07/30 05:12:08;;;;;;;3.00;1.73;;;;;;;18.23;100.00;98406.41;4972417;28;20237;-63
2023/07/30 05:14:34;;;;;;;4.10;1.70;;;;;;;18.29;100.00;98414.34;4962555;28;20574;-63
2023/07/30 05:17:01;;;;;;;1.97;1.60;;;;;;;18.54;100.00;98413.69;4974328;28;20242;-63
2023/07/30 05:19:29;;;;;;;1.90;1.63;;;;;;;18.79;100.00;98426.19;4969724;28;20321;-63
2023/07/30 05:21:56;;;;;;;2.23;1.60;;;;;;;18.96;100.00;98426.56;4974986;28;20263;-63
2023/07/30 05:24:22;;;;;;;1.90;1.47;;;;;;;19.05;100.00;98424.50;4968883;28;20227;-63
2023/07/30 05:26:49;;;;;;;2.13;1.50;;;;;;;18.84;100.00;98417.66;4973336;28;20238;-63
2023/07/30 05:29:17;;;;;;;2.80;1.60;;;;;;;18.88;100.00;98424.94;4971841;28;20237;-63
2023/07/30 05:31:44;;;;;;;1.80;1.43;;;;;;;18.91;100.00;98417.59;4973383;28;20637;-63
2023/07/30 05:34:11;;;;;;;1.60;1.20;;;;;;;18.83;100.00;98410.72;4967981;28;20233;-63
2023/07/30 05:36:38;;;;;;;4.40;1.37;;;;;;;18.79;100.00;98412.16;4974431;28;20274;-63
2023/07/30 05:39:05;;;;;;;2.33;1.03;;;;;;;18.71;100.00;98407.91;4971974;28;20293;-63
2023/07/30 05:41:31;;;;;;;2.30;1.70;;;;;;;18.70;100.00;98408.94;4972909;28;20581;-63
2023/07/30 05:43:58;;;;;;;1.83;1.40;;;;;;;18.67;100.00;98419.94;4972168;28;20253;-63
2023/07/30 05:46:26;;;;;;;3.23;1.60;;;;;;;18.65;100.00;98421.97;4969564;28;20772;-63
2023/07/30 05:48:52;;;;;;;2.67;1.67;;;;;;;18.66;100.00;98413.00;4973574;28;20721;-63
2023/07/30 05:51:19;;;;;;;1.77;1.40;;;;;;;18.53;100.00;98420.00;4966944;28;20597;-63
2023/07/30 05:53:45;;;;;;;2.00;1.60;;;;;;;18.59;100.00;98442.13;4971579;28;20241;-63
2023/07/30 05:56:14;;;;;;;5.37;2.07;;;;;;;18.53;100.00;98453.53;4969619;28;20296;-63
2023/07/30 05:58:40;;;;;;;3.43;2.17;;;;;;;18.30;100.00;98441.56;4969979;28;20239;-63
2023/07/30 06:01:07;;;;;;;2.33;1.60;;;;;;;18.11;100.00;98453.78;4969810;28;20250;-63
2023/07/30 06:03:35;;;;;;;2.27;1.73;;;;;;;17.98;100.00;98446.66;4972141;28;20246;-63
2023/07/30 06:06:02;;;;;;;4.87;1.60;;;;;;;18.00;100.00;98452.59;4969892;28;20231;-63
2023/07/30 06:08:29;;;;;;;3.70;2.20;;;;;;;17.97;100.00;98458.25;4959434;28;20683;-63
2023/07/30 06:10:56;;;;;;;2.40;1.73;;;;;;;18.02;100.00;98471.66;4973521;28;20230;-63
2023/07/30 06:13:22;;;;;;;3.07;2.20;;;;;;;18.08;100.00;98470.84;4968457;28;20303;-63
2023/07/30 06:15:49;;;;;;;3.53;2.20;;;;;;;18.12;100.00;98476.53;4969220;28;20828;-63
2023/07/30 06:18:15;;;;;;;4.73;2.10;;;;;;;18.10;100.00;98476.72;4969043;28;20747;-63
2023/07/30 06:20:43;;;;;;;2.83;2.10;;;;;;;18.18;100.00;98483.66;4969491;28;20308;-63
2023/07/30 06:23:10;;;;;;;3.40;2.30;;;;;;;18.24;100.00;98493.41;4967100;28;20241;-63
2023/07/30 06:25:36;;;;;;;3.53;1.80;;;;;;;18.25;100.00;98497.69;4972051;28;20237;-63
2023/07/30 06:28:03;;;;;;;2.33;1.90;;;;;;;18.26;100.00;98496.66;4971113;28;20398;-63
2023/07/30 06:30:29;;;;;;;2.00;1.80;;;;;;;18.25;100.00;98495.03;4970097;28;20608;-63
2023/07/30 06:32:56;;;;;;;2.93;1.60;;;;;;;18.37;100.00;98500.50;4969005;28;20593;-63
2023/07/30 06:35:22;;;;;;;2.23;1.40;;;;;;;18.41;100.00;98504.38;4968482;28;20229;-63
2023/07/30 06:37:51;;;;;;;2.23;1.50;;;;;;;18.53;100.00;98495.81;4971317;28;20280;-63
2023/07/30 06:40:18;;;;;;;1.30;1.20;;;;;;;18.52;100.00;98494.19;4967825;28;20232;-63
2023/07/30 06:42:44;;;;;;;2.37;1.47;;;;;;;18.53;100.00;98511.69;4971566;28;20239;-63
2023/07/30 06:45:11;;;;;;;1.57;1.37;;;;;;;18.52;100.00;98505.59;4966601;28;20235;-63
2023/07/30 06:47:37;;;;;;;1.80;1.57;;;;;;;18.64;100.00;98503.13;4971053;28;20239;-63
2023/07/30 06:50:08;;;;;;;2.53;1.37;;;;;;;18.84;100.00;98507.56;4973076;28;20229;-63
2023/07/30 06:52:34;;;;;;;1.63;1.30;;;;;;;18.74;100.00;98514.09;4968343;28;20316;-63
2023/07/30 06:55:03;;;;;;;1.63;1.30;;;;;;;18.93;100.00;98510.78;4972738;28;20246;-63
2023/07/30 06:57:30;;;;;;;1.57;1.37;;;;;;;19.10;100.00;98521.72;4969144;28;21859;-63
2023/07/30 06:59:57;;;;;;;2.07;1.00;;;;;;;19.26;100.00;98521.25;4974111;28;20703;-63
2023/07/30 07:02:24;;;;;;;3.27;1.20;;;;;;;19.04;100.00;98520.75;4958492;28;20330;-63
2023/07/30 07:04:55;;;;;;;5.00;1.20;;;;;;;19.33;100.00;98521.25;4979913;28;20234;-63
2023/07/30 07:07:22;;;;;;;1.40;1.20;;;;;;;19.38;100.00;98518.78;4967038;28;20605;-63
2023/07/30 07:09:55;;;;;;;1.30;1.00;;;;;;;19.39;100.00;98527.53;4973449;28;20225;-63
2023/07/30 07:12:23;;;;;;;1.83;1.30;;;;;;;19.29;100.00;98534.06;4960389;28;20243;-63
2023/07/30 07:14:58;;;;;;;2.50;1.40;;;;;;;19.56;100.00;98539.25;4971575;28;20293;-63
2023/07/30 07:17:24;;;;;;;2.30;1.30;;;;;;;19.61;100.00;98539.44;4966907;28;20238;-63
2023/07/30 07:19:55;;;;;;;1.73;1.27;;;;;;;19.52;100.00;98537.25;4969089;28;20312;-63
2023/07/30 07:22:22;;;;;;;2.50;1.30;;;;;;;19.37;100.00;98537.50;4968137;28;20288;-63
2023/07/30 07:24:55;;;;;;;1.87;1.40;;;;;;;19.44;100.00;98533.81;4969543;28;20682;-63
2023/07/30 07:27:24;;;;;;;2.20;1.10;;;;;;;19.74;100.00;98533.22;4969324;28;20706;-63
2023/07/30 07:29:55;;;;;;;2.40;1.30;;;;;;;20.24;100.00;98528.25;4984369;28;20230;-63
2023/07/30 07:32:21;;;;;;;4.67;1.40;;;;;;;20.73;99.13;98533.72;4966935;28;20233;-63
2023/07/30 07:35:13;;;;;;;2.07;1.30;;;;;;;21.13;95.74;98535.19;4973830;28;21188;-63
2023/07/30 07:37:39;;;;;;;2.30;1.40;;;;;;;21.05;90.35;98537.09;4972354;28;20307;-63
2023/07/30 07:40:09;;;;;;;4.03;1.70;;;;;;;20.88;91.10;98533.41;4971166;28;20252;-63
2023/07/30 07:42:38;;;;;;;2.30;1.40;;;;;;;20.71;92.12;98544.56;4967326;28;20250;-63
2023/07/30 07:45:06;;;;;;;3.50;1.60;;;;;;;20.38;94.78;98543.00;4974059;28;20234;-63
2023/07/30 07:47:32;;;;;;;3.73;1.60;;;;;;;20.16;96.62;98556.63;4966800;28;20236;-63
2023/07/30 07:49:59;;;;;;;2.17;1.50;;;;;;;20.06;94.90;98553.66;4972758;28;20299;-63
2023/07/30 07:52:26;;;;;;;1.90;1.40;;;;;;;20.18;95.22;98545.81;4970215;28;20623;-63
2023/07/30 07:54:55;;;;;;;4.50;1.70;;;;;;;20.24;97.05;98544.13;4968187;28;20236;-62
2023/07/30 07:57:21;;;;;;;2.40;1.40;;;;;;;20.34;97.40;98547.94;4969329;28;20244;-62
2023/07/30 08:00:14;;;;;;;2.00;1.30;;;;;;;20.78;95.94;98552.47;4958465;28;20378;-62
2023/07/30 08:02:41;;;;;;;2.27;1.80;;;;;;;20.64;95.74;98562.38;4966620;28;20327;-62
2023/07/30 08:05:08;;;;;;;3.70;1.90;;;;;;;20.50;95.00;98559.84;4965536;28;20889;-62
2023/07/30 08:07:35;;;;;;;3.43;1.90;;;;;;;19.94;99.21;98548.22;4963241;28;20251;-62
2023/07/30 08:10:02;;;;;;;3.70;1.97;;;;;;;20.15;98.34;98556.84;4968462;28;20294;-62
2023/07/30 08:12:28;;;;;;;2.43;1.83;;;;;;;20.31;100.00;98555.50;4967352;28;20278;-62
2023/07/30 08:14:55;;;;;;;7.40;2.17;;;;;;;20.73;99.97;98558.41;4969380;28;20251;-62
2023/07/30 08:17:24;;;;;;;5.77;2.03;;;;;;;20.86;97.54;98559.34;4968789;28;20290;-66
2023/07/30 08:19:55;;;;;;;3.73;2.00;;;;;;;20.62;96.35;98569.72;4969337;28;20319;-63
2023/07/30 08:22:22;;;;;;;2.90;2.00;;;;;;;20.58;95.75;98556.13;4966845;28;21087;-64
2023/07/30 08:24:55;;;;;;;5.43;2.70;;;;;;;20.98;95.29;98562.91;4969154;28;20329;-64
2023/07/30 08:27:22;;;;;;;2.80;2.20;;;;;;;21.14;95.00;98572.09;4966226;28;20298;-63
2023/07/30 08:29:52;;;;;;;3.73;1.70;;;;;;;21.33;90.70;98567.59;4962337;28;20243;-63
2023/07/30 08:32:19;;;;;;;3.83;2.20;;;;;;;21.63;91.00;98566.06;4962551;28;20235;-63
2023/07/30 08:34:46;;;;;;;4.40;2.20;;;;;;;21.88;94.79;98570.41;4968985;28;20269;-63
2023/07/30 08:37:13;;;;;;;4.53;1.90;;;;;;;21.98;88.71;98570.66;4965631;28;21448;-63
2023/07/30 08:39:40;;;;;;;3.10;1.83;;;;;;;22.09;88.31;98585.84;4968039;28;20230;-63
2023/07/30 08:42:06;;;;;;;2.60;2.00;;;;;;;21.35;89.43;98564.72;4970472;28;20232;-63
2023/07/30 08:44:33;;;;;;;3.40;2.30;;;;;;;21.88;88.41;98576.53;4965038;28;20239;-63
2023/07/30 08:47:00;;;;;;;3.60;1.93;;;;;;;21.74;88.84;98567.91;4970726;28;20251;-61
2023/07/30 08:49:28;;;;;;;2.77;1.70;;;;;;;22.11;89.55;98564.34;4967360;28;20713;-63
2023/07/30 08:51:56;;;;;;;4.80;1.90;;;;;;;22.36;88.06;98571.31;4967393;28;20243;-62
2023/07/30 08:54:23;;;;;;;4.73;1.93;;;;;;;22.19;86.34;98558.72;4966170;28;20261;-62
2023/07/30 08:56:50;;;;;;;2.30;1.80;;;;;;;22.41;85.34;98571.44;4968032;28;20260;-62
2023/07/30 08:59:19;;;;;;;4.17;1.90;;;;;;;22.64;85.25;98569.88;4964001;28;20238;-62
2023/07/30 09:01:47;;;;;;;4.90;1.80;;;;;;;22.92;85.56;98571.00;4971134;28;20245;-62
2023/07/30 09:04:18;;;;;;;1.90;1.67;;;;;;;22.56;79.61;98582.47;4953127;28;20256;-63
2023/07/30 09:06:44;;;;;;;5.63;2.00;;;;;;;22.82;77.98;98591.03;4967942;28;20226;-63
2023/07/30 09:09:14;;;;;;;3.63;1.57;;;;;;;22.91;73.26;98590.69;4963588;28;20227;-64
2023/07/30 09:11:40;;;;;;;2.70;1.53;;;;;;;23.07;69.34;98597.16;4969547;28;20254;-63
2023/07/30 09:14:07;;;;;;;3.40;1.97;;;;;;;22.70;71.18;98606.19;4964233;28;20258;-64
2023/07/30 09:16:34;;;;;;;2.97;1.90;;;;;;;22.25;76.21;98608.31;4963570;28;20237;-64
2023/07/30 09:19:01;;;;;;;4.57;1.60;;;;;;;22.15;75.26;98609.88;4965786;28;20261;-64
2023/07/30 09:21:31;;;;;;;2.40;1.60;;;;;;;21.91;76.59;98604.47;4964988;28;20237;-64
2023/07/30 09:23:57;;;;;;;2.33;1.57;;;;;;;22.45;76.25;98611.72;4973824;28;20275;-64
2023/07/30 09:26:25;;;;;;;2.17;1.43;;;;;;;22.65;71.55;98622.84;4969769;28;20318;-65
2023/07/30 09:28:52;;;;;;;4.10;1.87;;;;;;;23.00;70.65;98616.72;4970148;28;20546;-65
2023/07/30 09:31:18;;;;;;;2.53;1.70;;;;;;;23.76;66.67;98630.25;4956903;28;20710;-64
2023/07/30 09:33:45;;;;;;;2.40;1.50;;;;;;;23.14;67.19;98614.63;4971132;28;20245;-64
2023/07/30 09:36:11;;;;;;;2.60;1.70;;;;;;;23.44;67.55;98610.19;4957946;28;20243;-64
2023/07/30 09:38:40;;;;;;;3.77;1.70;;;;;;;22.96;66.42;98638.72;4963795;28;20242;-64
2023/07/30 09:41:07;;;;;;;4.13;1.77;;;;;;;22.14;68.29;98638.34;4969587;28;20622;-64
2023/07/30 09:43:35;;;;;;;3.23;1.77;;;;;;;22.41;69.22;98628.09;4967667;28;20254;-64
2023/07/30 09:46:03;;;;;;;4.30;1.80;;;;;;;21.62;71.50;98633.47;4964594;28;20227;-64
2023/07/30 09:48:30;;;;;;;3.70;1.97;;;;;;;22.08;68.14;98623.28;4974408;28;20262;-65
2023/07/30 09:50:58;;;;;;;2.53;1.70;;;;;;;22.39;68.95;98630.19;4963223;28;20333;-65
2023/07/30 09:53:25;;;;;;;2.30;1.73;;;;;;;22.30;67.98;98633.38;4971037;28;20250;-65
2023/07/30 09:55:52;;;;;;;3.97;1.87;;;;;;;22.05;70.33;98637.03;4975538;28;20237;-65
2023/07/30 09:58:18;;;;;;;3.10;2.00;;;;;;;21.88;69.49;98637.66;4950192;28;20221;-65
2023/07/30 10:00:49;;;;;;;2.97;1.63;;;;;;;21.75;70.27;98629.84;4974075;28;20241;-65
2023/07/30 10:03:16;;;;;;;4.90;1.73;;;;;;;21.50;68.94;98639.50;4967294;28;20236;-65
2023/07/30 10:05:45;;;;;;;2.90;1.70;;;;;;;22.18;63.54;98636.84;4973236;28;20227;-64
2023/07/30 10:08:17;;;;;;;4.03;2.00;;;;;;;22.26;63.82;98651.66;4972884;28;20263;-64
2023/07/30 10:10:45;;;;;;;6.87;2.27;;;;;;;22.05;66.49;98645.00;4970606;28;20315;-65
2023/07/30 10:13:13;;;;;;;4.40;1.97;;;;;;;21.83;66.28;98650.78;4969560;28;20240;-65
2023/07/30 10:15:40;;;;;;;3.50;1.93;;;;;;;21.82;66.50;98665.13;4974836;28;20242;-65
2023/07/30 10:18:08;;;;;;;2.80;1.70;;;;;;;21.72;65.34;98662.16;4968844;28;20243;-65
2023/07/30 10:20:35;;;;;;;2.93;1.93;;;;;;;21.34;68.58;98648.06;4970432;28;20237;-65
2023/07/30 10:23:05;;;;;;;5.97;2.10;;;;;;;21.37;69.96;98650.28;4971460;28;20243;-65
2023/07/30 10:25:43;;;;;;;5.13;2.00;;;;;;;21.38;67.47;98649.25;4974012;28;20249;-65
2023/07/30 10:28:10;;;;;;;4.23;2.00;;;;;;;21.59;71.14;98647.19;4966806;28;20883;-65
2023/07/30 10:30:37;;;;;;;2.67;2.10;;;;;;;21.08;70.18;98641.97;4968040;28;20268;-65
2023/07/30 10:33:11;;;;;;;3.37;2.03;;;;;;;20.87;73.32;98657.28;4961729;28;20255;-65
2023/07/30 10:35:45;;;;;;;4.60;2.40;;;;;;;20.28;76.34;98654.00;4971450;28;20277;-65
2023/07/30 10:38:16;;;;;;;2.60;2.07;;;;;;;19.93;77.61;98641.16;4968759;28;20225;-65
2023/07/30 10:41:01;;;;;;;2.33;1.80;;;;;;;19.90;79.00;98640.56;4969512;28;20561;-65
2023/07/30 10:43:29;;;;;;;2.50;1.90;;;;;;;20.12;80.40;98645.56;4967902;28;20232;-65
2023/07/30 10:45:55;;;;;;;2.63;1.83;;;;;;;20.41;77.83;98656.56;4971332;28;20251;-65
2023/07/30 10:48:30;;;;;;;5.93;2.03;;;;;;;20.53;78.34;98669.13;4967386;28;20624;-65
2023/07/30 10:50:58;;;;;;;3.90;1.87;;;;;;;20.50;78.39;98673.03;4936696;28;20288;-65
2023/07/30 10:53:25;;;;;;;2.67;1.70;;;;;;;20.93;75.33;98666.22;4966675;28;20505;-65
2023/07/30 10:55:54;;;;;;;5.83;1.90;;;;;;;21.23;72.03;98655.72;4972250;28;20231;-65
2023/07/30 10:58:22;;;;;;;2.70;1.60;;;;;;;21.37;72.40;98666.22;4960436;28;20237;-65
2023/07/30 11:00:49;;;;;;;3.70;1.47;;;;;;;21.58;71.63;98664.94;4970731;28;20319;-65
2023/07/30 11:03:16;;;;;;;2.57;1.63;;;;;;;22.38;70.07;98672.94;4961957;28;20232;-65
2023/07/30 11:05:42;;;;;;;2.30;1.40;;;;;;;22.69;68.25;98671.91;4969663;28;20330;-65
2023/07/30 11:08:10;;;;;;;2.97;1.70;;;;;;;22.30;67.54;98675.91;4970679;28;20735;-66
2023/07/30 11:10:43;;;;;;;2.70;1.50;;;;;;;21.50;68.42;98676.69;4966770;28;20237;-65
2023/07/30 11:13:10;;;;;;;4.37;1.40;;;;;;;20.40;72.94;98678.81;4969859;28;20232;-65
2023/07/30 11:15:42;;;;;;;3.93;1.73;;;;;;;20.58;71.95;98685.22;4972618;28;20653;-65
2023/07/30 11:18:08;;;;;;;3.87;1.70;;;;;;;20.90;71.47;98680.72;4971874;28;20243;-65
2023/07/30 11:20:36;;;;;;;2.90;1.70;;;;;;;20.55;73.24;98685.66;4970424;28;20304;-65
2023/07/30 11:23:03;;;;;;;3.83;1.80;;;;;;;20.63;72.63;98685.38;4969871;28;20695;-65
2023/07/30 11:25:31;;;;;;;3.90;1.97;;;;;;;20.77;71.84;98679.00;4959764;28;20255;-65
2023/07/30 11:27:57;;;;;;;5.43;2.10;;;;;;;20.99;72.26;98691.06;4970811;28;20262;-65
2023/07/30 11:30:24;;;;;;;3.43;1.97;;;;;;;21.34;68.64;98685.22;4968666;28;20242;-65
2023/07/30 11:32:50;;;;;;;4.93;1.63;;;;;;;21.38;70.00;98689.88;4970709;28;20258;-65
2023/07/30 11:35:18;;;;;;;4.10;1.53;;;;;;;21.19;71.17;98694.34;4966378;28;20903;-65
2023/07/30 11:37:45;;;;;;;5.80;1.90;;;;;;;21.58;70.25;98694.16;4968937;28;20528;-65
2023/07/30 11:40:12;;;;;;;3.50;1.70;;;;;;;21.51;68.76;98704.03;4967463;28;20629;-65